Terminal Aerodrome Forecast
Issued by NWS

Home | Current Version | Previous Version | Text Only | Print | Product List | Glossary Off
Versions: 1 2 3 4 5 6 7 8 9 10 11 12 13 14 15 16 17

000
FTUS43 KMPX 181700
TAFRNH
TAF
KRNH 181729Z 1818/1918 11009KT P6SM BKN090
     FM190700 12012G19KT P6SM FEW100 BKN250
     FM191000 14016G23KT P6SM SCT050 BKN100
     FM191600 15018G25KT P6SM VCSH SCT020 OVC040=

USA.gov is the U.S. government's official web portal to all federal, state and local government web resources and services.